createdAt,value
2023-04-12T00:00:57.604Z,98.51
2023-04-12T00:05:57.520Z,98.41
2023-04-12T00:10:57.467Z,98.10
2023-04-12T00:15:57.453Z,97.27
2023-04-12T00:20:57.331Z,96.79
2023-04-12T00:25:57.267Z,96.52
2023-04-12T00:30:57.242Z,97.45
2023-04-12T00:35:57.228Z,98.08
2023-04-12T00:40:57.086Z,98.29
2023-04-12T00:45:57.040Z,99.12
2023-04-12T00:50:56.977Z,99.43
2023-04-12T00:55:56.892Z,99.58
2023-04-12T01:00:56.895Z,99.27
2023-04-12T01:05:56.762Z,99.01
2023-04-12T01:10:56.694Z,98.90
2023-04-12T01:15:56.664Z,99.52
2023-04-12T01:20:56.560Z,99.57
2023-04-12T01:25:56.501Z,99.88
2023-04-12T01:30:56.443Z,99.99
2023-04-12T01:35:56.387Z,99.99
2023-04-12T01:40:56.300Z,99.98
2023-04-12T01:45:56.257Z,99.99
2023-04-12T01:50:56.169Z,99.99
2023-04-12T01:55:56.098Z,99.99
2023-04-12T02:00:56.087Z,99.99
2023-04-12T02:05:55.982Z,99.99
2023-04-12T02:10:55.906Z,99.99
2023-04-12T02:15:55.838Z,99.76
2023-04-12T02:20:55.762Z,99.99
2023-04-12T02:25:55.709Z,99.99
2023-04-12T02:30:55.652Z,99.99
2023-04-12T02:35:55.587Z,99.99
2023-04-12T02:40:55.526Z,99.99
2023-04-12T02:45:55.481Z,99.99
2023-04-12T02:50:55.382Z,99.99
2023-04-12T02:55:55.324Z,99.99
2023-04-12T03:00:55.227Z,99.99
2023-04-12T03:05:55.295Z,99.99
2023-04-12T03:10:55.107Z,99.87
2023-04-12T03:15:55.068Z,99.76
2023-04-12T03:20:54.970Z,99.66
2023-04-12T03:25:54.913Z,99.81
2023-04-12T03:30:54.839Z,99.99
2023-04-12T03:35:54.808Z,99.99
2023-04-12T03:40:54.687Z,99.99
2023-04-12T03:45:54.632Z,99.99
2023-04-12T03:50:54.589Z,99.99
2023-04-12T03:55:54.510Z,99.99
2023-04-12T04:00:54.446Z,99.99
2023-04-12T04:05:54.390Z,99.99
2023-04-12T04:10:54.305Z,99.99
2023-04-12T04:15:54.277Z,99.99
2023-04-12T04:20:54.175Z,99.99
2023-04-12T04:25:54.121Z,99.99
2023-04-12T04:30:54.047Z,99.99
2023-04-12T04:35:54.020Z,99.99
2023-04-12T04:40:53.968Z,99.93
2023-04-12T04:45:53.878Z,98.75
2023-04-12T04:50:53.782Z,96.64
2023-04-12T04:55:53.721Z,90.62
2023-04-12T05:00:53.911Z,87.41
2023-04-12T05:05:53.620Z,83.45
2023-04-12T05:10:53.528Z,80.76
2023-04-12T05:15:53.491Z,75.18
2023-04-12T05:20:53.418Z,71.25
2023-04-12T05:25:53.322Z,66.95
2023-04-12T05:30:53.302Z,64.17
2023-04-12T05:35:53.259Z,60.66
2023-04-12T05:40:53.119Z,56.40
2023-04-12T05:45:53.265Z,55.60
2023-04-12T05:50:53.014Z,53.72
2023-04-12T05:55:52.956Z,51.60
2023-04-12T06:00:52.862Z,50.25
2023-04-12T06:05:52.831Z,50.96
2023-04-12T06:10:52.724Z,50.56
2023-04-12T06:15:52.742Z,50.76
2023-04-12T06:20:52.592Z,51.77
2023-04-12T06:25:52.523Z,52.18
2023-04-12T06:30:52.456Z,51.44
2023-04-12T06:35:52.429Z,50.68
2023-04-12T06:40:52.325Z,49.37
2023-04-12T06:45:52.260Z,50.74
2023-04-12T06:50:52.193Z,48.71
2023-04-12T06:55:52.153Z,48.87
2023-04-12T07:00:52.149Z,48.77
2023-04-12T07:05:52.008Z,49.13
2023-04-12T07:10:51.949Z,48.52
2023-04-12T07:15:51.887Z,48.62
2023-04-12T07:20:51.853Z,49.25
2023-04-12T07:25:51.760Z,48.93
2023-04-12T07:30:51.679Z,48.82
2023-04-12T07:35:51.667Z,48.19
2023-04-12T07:40:51.559Z,46.78
2023-04-12T07:45:51.508Z,47.08
2023-04-12T07:50:51.494Z,46.62
2023-04-12T07:55:51.365Z,47.87
2023-04-12T08:00:51.296Z,48.07
2023-04-12T08:05:51.299Z,46.60
2023-04-12T08:10:51.168Z,47.55
2023-04-12T08:15:51.127Z,47.33
2023-04-12T08:20:51.037Z,47.31
2023-04-12T08:25:50.954Z,43.99
2023-04-12T08:30:50.964Z,45.00
2023-04-12T08:35:50.857Z,42.90
2023-04-12T08:40:50.766Z,41.69
2023-04-12T08:45:50.706Z,43.73
2023-04-12T08:50:50.759Z,43.83
2023-04-12T08:55:50.566Z,43.14
2023-04-12T09:00:50.496Z,43.75
2023-04-12T09:05:50.427Z,44.70
2023-04-12T09:10:50.362Z,46.17
2023-04-12T09:15:50.296Z,45.43
2023-04-12T09:20:50.218Z,44.74
2023-04-12T09:25:50.170Z,45.25
2023-04-12T09:30:50.089Z,46.73
2023-04-12T09:35:50.114Z,44.90
2023-04-12T09:40:49.960Z,46.43
2023-04-12T09:45:49.954Z,45.62
2023-04-12T09:50:49.865Z,46.43
2023-04-12T09:55:49.753Z,45.33
2023-04-12T10:00:49.697Z,45.21
2023-04-12T10:05:49.624Z,46.35
2023-04-12T10:10:49.573Z,47.49
2023-04-12T10:15:49.579Z,46.75
2023-04-12T10:20:49.413Z,46.25
2023-04-12T10:25:49.396Z,46.75
2023-04-12T10:30:49.314Z,47.62
2023-04-12T10:35:49.269Z,47.07
2023-04-12T10:40:49.149Z,47.47
2023-04-12T10:45:49.123Z,48.00
2023-04-12T10:50:49.107Z,48.39
2023-04-12T10:55:48.972Z,48.74
2023-04-12T11:00:48.998Z,49.85
2023-04-12T11:05:48.915Z,49.55
2023-04-12T11:10:48.791Z,50.79
2023-04-12T11:15:48.704Z,51.17
2023-04-12T11:20:48.644Z,51.70
2023-04-12T11:25:48.587Z,53.42
2023-04-12T11:30:48.496Z,51.42
2023-04-12T11:35:48.430Z,52.71
2023-04-12T11:40:48.350Z,51.39
2023-04-12T11:45:48.305Z,52.44
2023-04-12T11:50:54.306Z,51.90
2023-04-12T11:55:49.173Z,51.09
2023-04-12T12:00:48.094Z,52.11
2023-04-12T12:05:48.433Z,52.48
2023-04-12T12:11:06.441Z,51.27
2023-04-12T12:15:48.914Z,52.08
2023-04-12T12:20:47.835Z,50.76
2023-04-12T12:25:47.762Z,49.83
2023-04-12T12:30:47.704Z,48.22
2023-04-12T12:35:47.678Z,50.37
2023-04-12T12:40:47.576Z,46.03
2023-04-12T12:45:47.493Z,46.43
2023-04-12T12:50:47.426Z,47.24
2023-04-12T12:55:47.375Z,47.34
2023-04-12T13:00:47.290Z,46.84
2023-04-12T13:05:47.258Z,48.50
2023-04-12T13:10:47.177Z,46.91
2023-04-12T13:15:47.097Z,47.49
2023-04-12T13:20:47.033Z,48.33
2023-04-12T13:25:47.012Z,47.42
2023-04-12T13:30:46.893Z,46.79
2023-04-12T13:35:46.846Z,45.62
2023-04-12T13:40:46.770Z,46.86
2023-04-12T13:45:46.769Z,46.07
2023-04-12T13:50:48.906Z,46.88
2023-04-12T13:55:46.615Z,47.03
2023-04-12T14:00:46.563Z,47.53
2023-04-12T14:05:46.436Z,47.66
2023-04-12T14:10:46.403Z,47.86
2023-04-12T14:15:46.299Z,48.16
2023-04-12T14:20:46.229Z,48.16
2023-04-12T14:25:46.171Z,48.36
2023-04-12T14:30:46.125Z,50.54
2023-04-12T14:35:46.069Z,52.41
2023-04-12T14:40:45.959Z,54.16
2023-04-12T14:45:45.907Z,56.41
2023-04-12T14:50:45.835Z,57.66
2023-04-12T14:55:45.779Z,58.94
2023-04-12T15:00:46.248Z,61.07
2023-04-12T15:05:45.639Z,63.36
2023-04-12T15:10:45.569Z,66.27
2023-04-12T15:15:45.491Z,69.32
2023-04-12T15:20:45.429Z,70.75
2023-04-12T15:25:45.359Z,70.95
2023-04-12T15:30:45.289Z,71.80
2023-04-12T15:35:45.233Z,73.06
2023-04-12T15:40:45.156Z,71.53
2023-04-12T15:45:45.142Z,72.28
2023-04-12T15:50:45.029Z,71.06
2023-04-12T15:55:44.987Z,71.46
2023-04-12T16:00:44.891Z,71.84
2023-04-12T16:05:44.831Z,72.55
2023-04-12T16:10:44.757Z,71.53
2023-04-12T16:15:44.775Z,71.84
2023-04-12T16:20:44.630Z,73.16
2023-04-12T16:25:44.571Z,73.40
2023-04-12T16:30:44.559Z,73.16
2023-04-12T16:35:44.432Z,72.52
2023-04-12T16:40:44.363Z,71.39
2023-04-12T16:45:44.292Z,71.60
2023-04-12T16:50:44.229Z,72.21
2023-04-12T16:55:44.174Z,71.23
2023-04-12T17:00:44.100Z,72.65
2023-04-12T17:05:44.020Z,72.17
2023-04-12T17:10:43.951Z,71.47
2023-04-12T17:15:43.981Z,64.81
2023-04-12T17:20:43.816Z,61.27
2023-04-12T17:25:43.742Z,60.20
2023-04-12T17:30:43.690Z,60.74
2023-04-12T17:35:43.626Z,60.30
2023-04-12T17:40:43.556Z,60.41
2023-04-12T17:45:43.489Z,60.33
2023-04-12T17:50:43.420Z,59.80
2023-04-12T17:55:43.369Z,59.56
2023-04-12T18:00:43.292Z,61.68
2023-04-12T18:05:43.233Z,65.37
2023-04-12T18:10:43.166Z,68.35
2023-04-12T18:15:43.118Z,70.01
2023-04-12T18:20:43.070Z,70.24
2023-04-12T18:25:42.978Z,71.09
2023-04-12T18:30:42.890Z,71.91
2023-04-12T18:35:42.839Z,72.72
2023-04-12T18:40:42.753Z,72.82
2023-04-12T18:45:42.692Z,73.47
2023-04-12T18:50:42.628Z,73.71
2023-04-12T18:55:42.558Z,74.86
2023-04-12T19:00:42.520Z,75.27
2023-04-12T19:05:42.432Z,74.86
2023-04-12T19:10:42.355Z,75.07
2023-04-12T19:15:42.326Z,75.00
2023-04-12T19:20:42.219Z,75.61
2023-04-12T19:25:42.156Z,75.85
2023-04-12T19:30:42.076Z,75.85
2023-04-12T19:35:42.033Z,75.82
2023-04-12T19:40:41.952Z,75.71
2023-04-12T19:45:41.912Z,75.61
2023-04-12T19:50:41.819Z,75.61
2023-04-12T19:55:41.743Z,75.41
2023-04-12T20:00:41.673Z,76.02
2023-04-12T20:05:41.608Z,76.02
2023-04-12T20:10:41.535Z,76.36
2023-04-12T20:15:41.473Z,76.22
2023-04-12T20:20:41.394Z,76.32
2023-04-12T20:25:41.358Z,76.77
2023-04-12T20:30:41.330Z,76.77
2023-04-12T20:35:41.202Z,76.43
2023-04-12T20:40:41.123Z,76.53
2023-04-12T20:45:41.062Z,76.43
2023-04-12T20:50:40.992Z,76.12
2023-04-12T20:55:40.978Z,76.19
2023-04-12T21:00:40.846Z,76.09
2023-04-12T21:05:40.886Z,76.19
2023-04-12T21:10:40.729Z,76.39
2023-04-12T21:15:40.779Z,76.09
2023-04-12T21:20:40.596Z,76.09
2023-04-12T21:25:40.534Z,77.25
2023-04-12T21:30:40.461Z,76.84
2023-04-12T21:35:40.656Z,76.59
2023-04-12T21:40:40.320Z,76.59
2023-04-12T21:45:40.287Z,76.39
2023-04-12T21:50:40.194Z,76.70
2023-04-12T21:55:40.162Z,76.59
2023-04-12T22:00:40.160Z,77.00
2023-04-12T22:05:40.004Z,77.11
2023-04-12T22:10:39.925Z,77.31
2023-04-12T22:15:39.863Z,78.16
2023-04-12T22:20:39.817Z,79.08
2023-04-12T22:25:39.728Z,79.39
2023-04-12T22:30:39.858Z,80.10
2023-04-12T22:35:39.600Z,80.44
2023-04-12T22:40:39.534Z,81.46
2023-04-12T22:45:39.471Z,81.05
2023-04-12T22:50:39.406Z,80.96
2023-04-12T22:55:39.343Z,81.60
2023-04-12T23:00:39.305Z,81.67
2023-04-12T23:05:39.203Z,81.57
2023-04-12T23:10:39.136Z,81.05
2023-04-12T23:15:39.098Z,80.51
2023-04-12T23:20:39.026Z,79.69
2023-04-12T23:25:39.502Z,78.74
2023-04-12T23:30:38.882Z,78.64
2023-04-12T23:35:38.812Z,77.68
2023-04-12T23:40:38.737Z,76.76
2023-04-12T23:45:38.682Z,76.76
2023-04-12T23:50:38.627Z,76.46
2023-04-12T23:55:38.558Z,76.76
